Time;durP1;ratioP1;P1;durP2;ratioP2;P2;SDS_P1;SDS_P2;PMS_P1;PMS_P2;Temp;Humidity;BMP_temperature;BMP_pressure;BME280_temperature;BME280_humidity;BME280_pressure;Samples;Min_cycle;Max_cycle;Signal;HPM_P1;HPM_P2
2023/03/11 00:01:31;;;;;;;6.90;2.10;;;-0.20;99.90;;;;;;4985186;28;20723;-88
2023/03/11 00:03:58;;;;;;;5.78;1.70;;;-0.20;99.90;;;;;;4987273;28;20053;-88
2023/03/11 00:06:24;;;;;;;5.22;1.80;;;-0.20;99.90;;;;;;4986617;28;20054;-88
2023/03/11 00:08:51;;;;;;;6.65;1.65;;;-0.10;99.90;;;;;;4987495;28;20128;-88
2023/03/11 00:11:16;;;;;;;8.05;2.00;;;-0.10;99.90;;;;;;4970333;28;20061;-88
2023/03/11 00:13:42;;;;;;;5.05;2.25;;;-0.10;99.90;;;;;;4986771;28;20050;-87
2023/03/11 00:16:08;;;;;;;2.60;1.40;;;-0.10;99.90;;;;;;4987441;28;20051;-88
2023/03/11 00:18:34;;;;;;;7.50;1.63;;;-0.10;99.90;;;;;;4986294;28;20104;-88
2023/03/11 00:21:00;;;;;;;4.10;1.55;;;-0.10;99.90;;;;;;4976863;28;20102;-88
2023/03/11 00:23:26;;;;;;;6.90;1.77;;;-0.10;99.90;;;;;;4986886;28;20046;-88
2023/03/11 00:25:52;;;;;;;5.97;1.88;;;-0.10;99.90;;;;;;4988424;28;20046;-88
2023/03/11 00:28:18;;;;;;;7.25;1.85;;;0.00;99.90;;;;;;4988655;28;20043;-88
2023/03/11 00:30:45;;;;;;;3.58;1.80;;;0.00;99.90;;;;;;4988683;28;20108;-88
2023/03/11 00:33:13;;;;;;;5.43;1.67;;;0.00;99.90;;;;;;4988200;28;20070;-87
2023/03/11 00:35:40;;;;;;;5.07;1.73;;;0.00;99.90;;;;;;4988455;28;20623;-86
2023/03/11 00:38:10;;;;;;;4.97;1.38;;;0.00;99.90;;;;;;4987821;28;20111;-89
2023/03/11 00:40:36;;;;;;;2.88;1.38;;;0.00;99.90;;;;;;4988564;28;20077;-89
2023/03/11 00:43:02;;;;;;;4.13;1.38;;;0.00;99.90;;;;;;4988651;28;20181;-88
2023/03/11 00:45:28;;;;;;;5.22;1.58;;;0.00;99.90;;;;;;4989094;28;20053;-88
2023/03/11 00:47:54;;;;;;;6.57;1.75;;;-0.10;99.90;;;;;;4991762;28;20046;-88
2023/03/11 00:50:23;;;;;;;6.05;1.65;;;-0.10;99.90;;;;;;4992603;28;20174;-88
2023/03/11 00:52:50;;;;;;;8.55;1.85;;;-0.10;99.90;;;;;;4991910;28;20046;-88
2023/03/11 00:55:25;;;;;;;4.90;1.50;;;-0.10;99.90;;;;;;4991705;28;20053;-88
2023/03/11 00:57:55;;;;;;;5.20;2.00;;;-0.10;99.90;;;;;;4989820;28;20085;-88
2023/03/11 01:00:22;;;;;;;5.25;1.75;;;0.00;99.90;;;;;;4989588;28;20039;-88
2023/03/11 01:02:48;;;;;;;4.07;1.38;;;-0.10;99.90;;;;;;4990880;28;20078;-88
2023/03/11 01:05:14;;;;;;;3.28;1.60;;;-0.10;99.90;;;;;;4991324;28;20185;-88
2023/03/11 01:07:40;;;;;;;2.20;1.23;;;0.00;99.90;;;;;;4990028;28;20042;-88
2023/03/11 01:10:07;;;;;;;5.45;1.80;;;-0.10;99.90;;;;;;4973501;28;20070;-88
2023/03/11 01:12:33;;;;;;;6.07;1.85;;;0.00;99.90;;;;;;4990279;28;20058;-88
2023/03/11 01:14:59;;;;;;;3.65;1.42;;;0.00;99.90;;;;;;4991077;28;20042;-89
2023/03/11 01:17:25;;;;;;;5.18;1.40;;;-0.10;99.90;;;;;;4990192;28;20053;-88
2023/03/11 01:19:50;;;;;;;4.15;1.88;;;0.00;99.90;;;;;;4989604;28;20393;-88
2023/03/11 01:22:17;;;;;;;7.10;1.60;;;0.00;99.90;;;;;;4986476;28;20489;-88
2023/03/11 01:24:43;;;;;;;5.45;1.30;;;0.00;99.90;;;;;;4972053;28;20410;-88
2023/03/11 01:27:09;;;;;;;7.97;2.20;;;0.00;99.90;;;;;;4988787;28;20058;-88
2023/03/11 01:29:34;;;;;;;6.28;1.42;;;-0.10;99.90;;;;;;4987849;28;20436;-88
2023/03/11 01:32:00;;;;;;;5.50;1.88;;;-0.10;99.90;;;;;;4989388;28;20050;-88
2023/03/11 01:34:26;;;;;;;4.93;1.90;;;-0.10;99.90;;;;;;4973118;28;20042;-88
2023/03/11 01:36:51;;;;;;;6.05;1.40;;;-0.10;99.90;;;;;;4988763;28;20056;-87
2023/03/11 01:39:17;;;;;;;7.07;1.88;;;-0.20;99.90;;;;;;4990343;28;20038;-88
2023/03/11 01:41:42;;;;;;;3.08;1.30;;;-0.20;99.90;;;;;;4990402;28;20108;-88
2023/03/11 01:44:11;;;;;;;6.68;1.63;;;-0.20;99.90;;;;;;4990201;28;20480;-88
2023/03/11 01:46:52;;;;;;;7.53;2.00;;;-0.10;99.90;;;;;;4989423;28;20078;-88
2023/03/11 01:49:21;;;;;;;8.43;1.98;;;-0.10;99.90;;;;;;4973291;28;20085;-88
2023/03/11 01:51:50;;;;;;;8.32;1.65;;;-0.10;99.90;;;;;;4990719;28;20050;-88
2023/03/11 01:54:20;;;;;;;3.60;1.15;;;-0.10;99.90;;;;;;4988253;28;20358;-88
2023/03/11 01:56:48;;;;;;;6.45;1.30;;;-0.10;99.90;;;;;;4985610;28;20097;-88
2023/03/11 01:59:18;;;;;;;3.92;1.30;;;-0.10;99.90;;;;;;4990215;28;20515;-88
2023/03/11 02:01:59;;;;;;;4.57;0.90;;;0.00;99.90;;;;;;4985829;28;21490;-88
2023/03/11 02:04:27;;;;;;;2.90;1.35;;;-0.10;99.90;;;;;;4988706;28;20400;-88
2023/03/11 02:06:54;;;;;;;8.63;1.60;;;0.00;99.90;;;;;;4978555;28;20129;-87
2023/03/11 02:09:22;;;;;;;7.78;2.05;;;0.00;99.90;;;;;;4982037;28;20042;-88
2023/03/11 02:11:49;;;;;;;9.60;2.45;;;0.00;99.90;;;;;;4990436;28;20058;-89
2023/03/11 02:14:16;;;;;;;11.52;3.03;;;-0.10;99.90;;;;;;4990248;28;20053;-88
2023/03/11 02:16:41;;;;;;;10.43;2.63;;;-0.10;99.90;;;;;;4987726;28;20846;-87
2023/03/11 02:19:27;;;;;;;6.90;1.48;;;-0.10;99.90;;;;;;4986947;28;20046;-87
2023/03/11 02:21:53;;;;;;;6.43;1.85;;;-0.10;99.90;;;;;;4979060;28;20090;-88
2023/03/11 02:24:47;;;;;;;6.97;2.17;;;-0.10;99.90;;;;;;4989514;28;20568;-87
2023/03/11 02:27:16;;;;;;;8.48;1.83;;;-0.10;99.90;;;;;;4990546;28;20082;-88
2023/03/11 02:29:45;;;;;;;4.70;1.85;;;-0.10;99.90;;;;;;4990300;28;20068;-88
2023/03/11 02:32:11;;;;;;;6.00;1.50;;;-0.20;99.90;;;;;;4988746;28;20137;-87
2023/03/11 02:34:38;;;;;;;4.03;1.60;;;-0.20;99.90;;;;;;4988903;28;20137;-88
2023/03/11 02:37:07;;;;;;;4.93;1.40;;;-0.20;99.90;;;;;;4988478;28;20485;-88
2023/03/11 02:39:36;;;;;;;2.78;1.40;;;-0.20;99.90;;;;;;4972897;28;20448;-87
2023/03/11 02:42:12;;;;;;;2.60;1.40;;;-0.20;99.90;;;;;;4990169;28;20066;-87
2023/03/11 02:44:41;;;;;;;3.08;0.98;;;-0.20;99.90;;;;;;4988473;28;20058;-88
2023/03/11 02:47:06;;;;;;;5.63;0.90;;;-0.20;99.90;;;;;;4990133;28;20496;-88
2023/03/11 02:49:33;;;;;;;3.17;1.27;;;-0.30;99.90;;;;;;4988562;28;20054;-88
2023/03/11 02:51:59;;;;;;;3.08;1.33;;;-0.30;99.90;;;;;;4972774;28;20159;-87
2023/03/11 02:54:24;;;;;;;4.18;1.58;;;-0.30;99.90;;;;;;4989396;28;20564;-87
2023/03/11 02:56:50;;;;;;;6.78;1.23;;;-0.40;99.90;;;;;;4985512;28;20054;-87
2023/03/11 02:59:16;;;;;;;4.30;1.20;;;-0.40;99.90;;;;;;4989183;28;20046;-87
2023/03/11 03:01:42;;;;;;;3.35;1.30;;;-0.50;99.90;;;;;;4984794;28;20060;-87
2023/03/11 03:04:07;;;;;;;3.25;1.38;;;-0.60;99.90;;;;;;4990126;28;20086;-88
2023/03/11 03:06:33;;;;;;;3.17;0.95;;;-0.60;99.90;;;;;;4988066;28;20078;-88
2023/03/11 03:08:59;;;;;;;3.55;1.17;;;-0.70;99.90;;;;;;4988551;28;20152;-87
2023/03/11 03:11:24;;;;;;;4.25;0.90;;;-0.80;99.90;;;;;;4988476;28;20060;-87
2023/03/11 03:13:50;;;;;;;2.78;1.27;;;-0.90;99.90;;;;;;4987943;28;20104;-88
2023/03/11 03:16:15;;;;;;;2.55;0.95;;;-1.00;99.90;;;;;;4988889;28;20481;-87
2023/03/11 03:18:41;;;;;;;2.70;0.70;;;-1.10;99.90;;;;;;4989031;28;20134;-88
2023/03/11 03:21:07;;;;;;;3.42;0.85;;;-1.20;99.90;;;;;;4984821;28;20461;-87
2023/03/11 03:23:34;;;;;;;3.05;1.00;;;-1.30;99.90;;;;;;4988028;28;20050;-87
2023/03/11 03:26:00;;;;;;;1.13;1.00;;;-1.30;99.90;;;;;;4987402;28;20046;-87
2023/03/11 03:28:26;;;;;;;2.13;0.95;;;-1.40;99.90;;;;;;4989269;28;20097;-87
2023/03/11 03:30:53;;;;;;;2.03;1.05;;;-1.40;99.90;;;;;;4988550;28;20046;-87
2023/03/11 03:33:19;;;;;;;3.65;1.00;;;-1.40;99.90;;;;;;4986873;28;20129;-88
2023/03/11 03:35:45;;;;;;;3.58;0.93;;;-1.40;99.90;;;;;;4986268;28;20125;-87
2023/03/11 03:38:11;;;;;;;5.00;1.08;;;-1.30;99.90;;;;;;4988111;28;20058;-87
2023/03/11 03:40:38;;;;;;;4.45;1.00;;;-1.30;99.90;;;;;;4986422;28;20043;-87
2023/03/11 03:43:04;;;;;;;3.10;0.80;;;-1.40;99.90;;;;;;4988575;28;20056;-88
2023/03/11 03:45:30;;;;;;;9.77;1.10;;;-1.40;99.90;;;;;;4987778;28;20050;-88
2023/03/11 03:47:55;;;;;;;3.40;0.70;;;-1.50;99.90;;;;;;4988376;28;20100;-88
2023/03/11 03:50:21;;;;;;;2.83;1.40;;;-1.70;99.90;;;;;;4987797;28;20062;-87
2023/03/11 03:52:47;;;;;;;2.75;1.00;;;-1.70;99.90;;;;;;4987219;28;20050;-88
2023/03/11 03:55:12;;;;;;;1.67;1.05;;;-1.90;99.90;;;;;;4969472;28;20179;-88
2023/03/11 03:57:38;;;;;;;2.47;1.00;;;-2.00;99.90;;;;;;4987963;28;20424;-88
2023/03/11 04:00:07;;;;;;;1.60;0.80;;;-2.00;99.90;;;;;;4988415;28;20501;-88
2023/03/11 04:02:33;;;;;;;3.22;0.90;;;-2.10;99.90;;;;;;4987811;28;20509;-87
2023/03/11 04:05:00;;;;;;;3.42;1.20;;;-2.20;99.90;;;;;;4988776;28;20049;-87
2023/03/11 04:07:26;;;;;;;2.78;1.00;;;-2.20;99.90;;;;;;4986474;28;20050;-88
2023/03/11 04:09:51;;;;;;;3.17;0.70;;;-2.30;99.90;;;;;;4988128;28;20046;-87
2023/03/11 04:12:17;;;;;;;3.17;0.90;;;-2.30;99.90;;;;;;4986238;28;20074;-88
2023/03/11 04:14:43;;;;;;;2.65;0.80;;;-2.40;99.90;;;;;;4986591;28;20046;-88
2023/03/11 04:17:13;;;;;;;2.20;1.00;;;-2.50;99.90;;;;;;4989133;28;20054;-88
2023/03/11 04:19:39;;;;;;;4.05;1.02;;;-2.50;99.90;;;;;;4984332;28;20662;-88
2023/03/11 04:22:05;;;;;;;4.25;1.63;;;-2.60;99.90;;;;;;4988836;28;20047;-88
2023/03/11 04:24:30;;;;;;;5.82;1.17;;;-2.60;99.90;;;;;;4990203;28;20046;-88
2023/03/11 04:26:56;;;;;;;1.92;0.98;;;-2.60;99.90;;;;;;4990758;28;20374;-88
2023/03/11 04:29:21;;;;;;;4.70;0.90;;;-2.60;99.90;;;;;;4991394;28;20046;-87
2023/03/11 04:31:47;;;;;;;7.25;0.90;;;-2.60;99.90;;;;;;4990292;28;20054;-88
2023/03/11 04:34:13;;;;;;;2.28;0.90;;;-2.70;99.90;;;;;;4993095;28;20125;-87
2023/03/11 04:36:38;;;;;;;2.83;1.10;;;-2.70;99.90;;;;;;4991841;28;20041;-88
2023/03/11 04:39:04;;;;;;;5.57;1.17;;;-2.70;99.90;;;;;;4991366;28;20050;-88
2023/03/11 04:41:29;;;;;;;3.38;1.13;;;-2.80;99.90;;;;;;4990607;28;20128;-88
2023/03/11 04:43:55;;;;;;;1.23;1.10;;;-2.80;99.90;;;;;;4992586;28;20204;-88
2023/03/11 04:46:21;;;;;;;4.68;1.75;;;-2.80;99.90;;;;;;4992955;28;20469;-89
2023/03/11 04:48:47;;;;;;;4.25;1.20;;;-2.90;99.90;;;;;;4993325;28;20046;-88
2023/03/11 04:51:12;;;;;;;1.92;1.00;;;-2.90;99.90;;;;;;4974601;28;20049;-88
2023/03/11 04:53:38;;;;;;;3.40;1.50;;;-2.90;99.90;;;;;;4975290;28;20034;-89
2023/03/11 04:56:04;;;;;;;3.13;1.00;;;-2.90;99.90;;;;;;4992215;28;20046;-87
2023/03/11 04:58:29;;;;;;;2.70;1.13;;;-3.00;99.90;;;;;;4992310;28;20054;-87
2023/03/11 05:00:55;;;;;;;2.20;1.00;;;-3.00;99.90;;;;;;4984352;28;20070;-88
2023/03/11 05:03:20;;;;;;;6.93;1.00;;;-3.00;99.90;;;;;;4989641;28;20465;-87
2023/03/11 05:05:46;;;;;;;2.65;1.00;;;-3.00;99.90;;;;;;4992329;28;20746;-88
2023/03/11 05:08:11;;;;;;;4.15;1.50;;;-3.00;99.90;;;;;;4994151;28;20386;-89
2023/03/11 05:10:40;;;;;;;1.98;1.35;;;-3.00;99.90;;;;;;4991540;28;20153;-89
2023/03/11 05:13:06;;;;;;;3.28;1.13;;;-3.10;99.90;;;;;;4992513;28;20046;-89
2023/03/11 05:15:32;;;;;;;6.35;1.60;;;-3.20;99.90;;;;;;4992582;28;20049;-89
2023/03/11 05:18:00;;;;;;;3.08;1.15;;;-3.20;99.90;;;;;;4992716;28;20042;-89
2023/03/11 05:20:30;;;;;;;2.15;1.10;;;-3.20;99.90;;;;;;4991629;28;20457;-89
2023/03/11 05:23:01;;;;;;;4.15;1.00;;;-3.20;99.90;;;;;;4991451;28;20054;-89
2023/03/11 05:25:28;;;;;;;5.22;1.15;;;-3.30;99.90;;;;;;4992557;28;20481;-89
2023/03/11 05:28:01;;;;;;;1.75;0.90;;;-3.30;99.90;;;;;;4992669;28;20519;-89
2023/03/11 05:30:27;;;;;;;4.70;1.15;;;-3.50;99.90;;;;;;4992595;28;20038;-87
2023/03/11 05:32:53;;;;;;;1.40;0.88;;;-3.40;99.90;;;;;;4989808;28;20047;-89
2023/03/11 05:35:19;;;;;;;2.17;1.67;;;-3.40;99.90;;;;;;4991947;28;20046;-89
2023/03/11 05:37:53;;;;;;;3.00;1.20;;;-3.40;99.90;;;;;;4991062;28;20061;-89
2023/03/11 05:40:19;;;;;;;4.30;1.17;;;-4.20;99.90;;;;;;4990266;28;20072;-89
2023/03/11 05:42:45;;;;;;;2.55;1.15;;;-3.50;99.90;;;;;;4990096;28;20058;-88
2023/03/11 05:45:11;;;;;;;2.58;1.02;;;-3.40;99.90;;;;;;4991432;28;20050;-89
2023/03/11 05:47:37;;;;;;;4.45;1.00;;;-3.50;99.90;;;;;;4992052;28;20085;-89
2023/03/11 05:50:03;;;;;;;4.07;1.20;;;-3.50;99.90;;;;;;4988327;28;20053;-90
2023/03/11 05:52:31;;;;;;;5.00;1.17;;;-3.50;99.90;;;;;;4990599;28;20047;-89
2023/03/11 05:54:57;;;;;;;3.08;1.80;;;-3.40;99.90;;;;;;4988777;28;20522;-89
2023/03/11 05:57:22;;;;;;;2.22;1.17;;;-3.30;99.90;;;;;;4992059;28;20168;-89
2023/03/11 05:59:48;;;;;;;1.30;0.90;;;-3.30;99.90;;;;;;4989657;28;20039;-89
2023/03/11 06:02:14;;;;;;;3.50;0.90;;;-3.30;99.90;;;;;;4986735;28;20049;-89
2023/03/11 06:04:39;;;;;;;2.97;1.40;;;-3.40;99.90;;;;;;4988297;28;20539;-89
2023/03/11 06:07:05;;;;;;;1.88;1.00;;;-3.40;99.90;;;;;;4989238;28;20034;-89
2023/03/11 06:09:31;;;;;;;2.33;1.23;;;-3.40;99.90;;;;;;4991798;28;20072;-90
2023/03/11 06:11:56;;;;;;;2.22;1.25;;;-3.50;99.90;;;;;;4989310;28;20104;-89
2023/03/11 06:14:22;;;;;;;3.15;1.73;;;-3.50;99.90;;;;;;4992414;28;20050;-89
2023/03/11 06:16:48;;;;;;;2.90;1.15;;;-3.50;99.90;;;;;;4989675;28;20069;-89
2023/03/11 06:19:13;;;;;;;5.97;1.60;;;-3.50;99.90;;;;;;4983139;28;20379;-89
2023/03/11 06:21:39;;;;;;;2.65;1.10;;;-3.50;99.90;;;;;;4994849;28;20042;-88
2023/03/11 06:24:05;;;;;;;2.55;1.48;;;-3.50;99.90;;;;;;4990504;28;20081;-88
2023/03/11 06:26:30;;;;;;;106.78;9.35;;;-3.50;99.90;;;;;;4985771;28;20045;-87
2023/03/11 06:28:56;;;;;;;1.05;0.93;;;-3.50;99.90;;;;;;4986362;28;20069;-88
2023/03/11 06:31:25;;;;;;;1.05;0.95;;;-3.50;99.90;;;;;;4991248;28;20197;-89
2023/03/11 06:33:52;;;;;;;1.33;0.98;;;-3.50;99.90;;;;;;4974765;28;20145;-88
2023/03/11 06:36:19;;;;;;;1.95;1.10;;;-3.50;99.90;;;;;;4986436;28;20046;-91
2023/03/11 06:38:45;;;;;;;2.05;1.13;;;-3.40;99.90;;;;;;4991531;28;21019;-89
2023/03/11 06:41:12;;;;;;;2.30;1.30;;;-3.40;99.90;;;;;;4990088;28;20101;-90
2023/03/11 06:43:37;;;;;;;1.58;1.02;;;-3.40;99.90;;;;;;4983145;28;20163;-90
2023/03/11 06:46:19;;;;;;;4.00;1.20;;;-3.30;99.90;;;;;;4991115;28;20042;-90
2023/03/11 06:48:45;;;;;;;3.50;1.23;;;-3.30;99.90;;;;;;4973468;28;20061;-90
2023/03/11 06:51:12;;;;;;;2.97;1.10;;;-3.20;99.90;;;;;;4989072;28;20046;-90
2023/03/11 06:53:38;;;;;;;5.45;1.67;;;-3.10;99.90;;;;;;4990255;28;20050;-90
2023/03/11 06:56:07;;;;;;;3.38;1.35;;;-3.00;99.90;;;;;;4970944;28;20042;-90
2023/03/11 06:58:34;;;;;;;3.13;1.52;;;-2.90;99.90;;;;;;4970850;28;20062;-91
2023/03/11 07:01:12;;;;;;;2.70;1.55;;;-2.80;99.90;;;;;;4972696;28;20035;-90
2023/03/11 07:03:38;;;;;;;2.10;1.50;;;-2.70;99.90;;;;;;4987850;28;20489;-90
2023/03/11 07:06:04;;;;;;;2.22;1.30;;;-2.60;99.90;;;;;;4991247;28;20054;-90
2023/03/11 07:08:30;;;;;;;12.05;2.45;;;-2.50;99.90;;;;;;4973044;28;20056;-90
2023/03/11 07:11:28;;;;;;;2.00;1.40;;;-2.30;99.90;;;;;;4990101;28;20050;-89
2023/03/11 07:13:54;;;;;;;1.75;1.33;;;-2.30;99.90;;;;;;4996987;28;20248;-88
2023/03/11 07:16:27;;;;;;;2.67;1.23;;;-2.20;99.90;;;;;;4987872;28;20504;-88
2023/03/11 07:18:57;;;;;;;2.90;1.13;;;-2.10;99.90;;;;;;4989137;28;20177;-87
2023/03/11 07:21:24;;;;;;;2.03;1.48;;;-1.40;99.90;;;;;;4989059;28;20046;-86
2023/03/11 07:24:01;;;;;;;3.65;1.20;;;-1.00;99.90;;;;;;4988625;28;20038;-90
2023/03/11 07:26:27;;;;;;;2.35;1.45;;;-1.70;99.90;;;;;;4988412;28;20047;-88
2023/03/11 07:28:54;;;;;;;2.97;1.48;;;-1.60;99.90;;;;;;4987994;28;20050;-87
2023/03/11 07:31:25;;;;;;;3.78;1.40;;;-1.50;99.90;;;;;;4989087;28;20050;-86
2023/03/11 07:33:51;;;;;;;3.75;1.20;;;-1.40;99.90;;;;;;4972231;28;20505;-86
2023/03/11 07:36:20;;;;;;;5.63;1.45;;;-1.30;99.90;;;;;;4985379;28;20062;-87
2023/03/11 07:38:46;;;;;;;2.58;1.40;;;-1.20;99.90;;;;;;4971201;28;20334;-86
2023/03/11 07:41:13;;;;;;;5.57;1.50;;;-1.10;99.90;;;;;;4987631;28;20050;-87
2023/03/11 07:43:40;;;;;;;2.35;1.20;;;-1.00;99.90;;;;;;4987783;28;20975;-88
2023/03/11 07:46:08;;;;;;;3.85;1.27;;;-0.80;99.90;;;;;;4987943;28;20109;-86
2023/03/11 07:48:37;;;;;;;4.72;1.10;;;-0.70;99.90;;;;;;4982397;28;20313;-86
2023/03/11 07:51:05;;;;;;;4.78;1.50;;;-0.60;99.90;;;;;;4987822;28;20493;-87
2023/03/11 07:53:31;;;;;;;2.13;1.00;;;-0.50;99.90;;;;;;4988276;28;20070;-87
2023/03/11 07:55:58;;;;;;;3.35;1.33;;;-0.40;99.90;;;;;;4986790;28;20058;-85
2023/03/11 07:58:24;;;;;;;5.22;1.73;;;-0.30;99.90;;;;;;4986975;28;20050;-82
2023/03/11 08:00:50;;;;;;;2.65;1.42;;;-0.20;99.90;;;;;;4987048;28;20058;-81
2023/03/11 08:03:16;;;;;;;4.97;1.30;;;-0.20;99.90;;;;;;4988471;28;20204;-83
2023/03/11 08:05:42;;;;;;;4.38;1.35;;;0.00;99.90;;;;;;4988459;28;20181;-84
2023/03/11 08:08:08;;;;;;;2.63;0.93;;;0.10;99.90;;;;;;4986408;28;20055;-83
2023/03/11 08:10:36;;;;;;;4.70;1.40;;;0.20;99.90;;;;;;4988787;28;20049;-82
2023/03/11 08:13:02;;;;;;;5.97;1.70;;;0.30;99.90;;;;;;4987356;28;20406;-82
2023/03/11 08:15:27;;;;;;;2.65;1.45;;;0.40;99.90;;;;;;4986562;28;20057;-83
2023/03/11 08:17:53;;;;;;;3.65;1.30;;;0.50;99.90;;;;;;4988598;28;20051;-82
2023/03/11 08:20:19;;;;;;;2.30;1.13;;;0.60;99.90;;;;;;4988307;28;20072;-82
2023/03/11 08:22:44;;;;;;;3.92;1.20;;;0.70;99.90;;;;;;4987906;28;20070;-83
2023/03/11 08:25:10;;;;;;;1.77;0.90;;;0.80;99.90;;;;;;4988463;28;20046;-81
2023/03/11 08:27:35;;;;;;;4.15;1.17;;;0.90;99.90;;;;;;4987043;28;20601;-83
2023/03/11 08:30:01;;;;;;;2.35;1.02;;;0.90;99.90;;;;;;4986811;28;20413;-83
2023/03/11 08:32:30;;;;;;;8.10;1.90;;;1.00;99.90;;;;;;4988686;28;20062;-83
2023/03/11 08:34:56;;;;;;;3.60;1.20;;;1.10;99.90;;;;;;4986641;28;20104;-83
2023/03/11 08:37:22;;;;;;;7.25;2.20;;;1.10;99.90;;;;;;4969217;28;20059;-83
2023/03/11 08:39:47;;;;;;;2.47;1.10;;;1.20;99.90;;;;;;4987951;28;20048;-84
2023/03/11 08:42:13;;;;;;;2.67;1.10;;;1.30;99.90;;;;;;4988083;28;20058;-83
2023/03/11 08:44:39;;;;;;;2.30;1.40;;;1.40;99.90;;;;;;4986739;28;20051;-83
2023/03/11 08:47:04;;;;;;;7.22;1.75;;;1.50;99.90;;;;;;4987994;28;20042;-83
2023/03/11 08:49:30;;;;;;;6.25;1.90;;;1.60;99.90;;;;;;4983120;28;20061;-85
2023/03/11 08:51:55;;;;;;;4.25;1.27;;;1.60;99.90;;;;;;4986884;28;20104;-82
2023/03/11 08:54:21;;;;;;;3.38;1.27;;;1.60;99.90;;;;;;4981167;28;20046;-82
2023/03/11 08:56:46;;;;;;;2.78;1.13;;;1.80;99.90;;;;;;4987935;28;20057;-82
2023/03/11 08:59:13;;;;;;;4.55;1.30;;;1.80;99.90;;;;;;4980920;28;20129;-83
2023/03/11 09:01:39;;;;;;;3.67;1.55;;;2.00;99.90;;;;;;4977799;28;20074;-82
2023/03/11 09:04:04;;;;;;;5.70;1.40;;;2.00;99.90;;;;;;4983677;28;20089;-82
2023/03/11 09:06:42;;;;;;;5.68;1.60;;;2.10;99.90;;;;;;4980638;28;20501;-84
2023/03/11 09:09:16;;;;;;;7.60;1.75;;;2.30;99.90;;;;;;4973572;28;20051;-85
2023/03/11 09:11:42;;;;;;;3.95;1.48;;;2.40;99.90;;;;;;4991101;28;20432;-84
2023/03/11 09:14:08;;;;;;;3.92;1.48;;;2.60;99.90;;;;;;4992487;28;20474;-82
2023/03/11 09:16:33;;;;;;;3.78;1.40;;;2.60;99.90;;;;;;4990095;28;20046;-83
2023/03/11 09:19:02;;;;;;;4.05;1.98;;;2.70;99.90;;;;;;4990307;28;20228;-83
2023/03/11 09:21:28;;;;;;;1.73;1.27;;;2.80;99.90;;;;;;4991354;28;20039;-86
2023/03/11 09:23:53;;;;;;;3.50;1.35;;;2.80;99.90;;;;;;4988302;28;20048;-86
2023/03/11 09:26:19;;;;;;;4.13;1.40;;;2.90;99.90;;;;;;4973715;28;20089;-88
2023/03/11 09:28:47;;;;;;;7.10;1.75;;;2.90;99.90;;;;;;4991478;28;20757;-86
2023/03/11 09:31:14;;;;;;;3.55;1.40;;;3.80;99.90;;;;;;4991271;28;20073;-86
2023/03/11 09:33:41;;;;;;;2.28;1.63;;;3.20;99.90;;;;;;4989457;28;20050;-85
2023/03/11 09:36:10;;;;;;;2.97;1.95;;;3.20;99.90;;;;;;4989563;28;20124;-86
2023/03/11 09:38:36;;;;;;;4.75;2.17;;;3.30;99.90;;;;;;4989049;28;20042;-87
2023/03/11 09:41:17;;;;;;;2.95;1.83;;;3.30;99.90;;;;;;4973720;28;20497;-87
2023/03/11 09:44:16;;;;;;;4.07;2.70;;;4.00;99.90;;;;;;4989342;28;20054;-85
2023/03/11 09:47:13;;;;;;;5.03;1.95;;;3.40;99.90;;;;;;4989705;28;20780;-86
2023/03/11 09:49:41;;;;;;;2.70;1.70;;;3.40;99.90;;;;;;4989893;28;20125;-88
2023/03/11 09:52:14;;;;;;;4.38;2.03;;;3.40;99.90;;;;;;4989044;28;20181;-86
2023/03/11 09:54:47;;;;;;;2.80;1.77;;;3.40;99.90;;;;;;4990312;28;20041;-86
2023/03/11 09:57:18;;;;;;;3.20;1.83;;;3.60;99.90;;;;;;4991245;28;20081;-86
2023/03/11 09:59:45;;;;;;;3.00;1.83;;;3.60;99.90;;;;;;4980971;28;20724;-87
2023/03/11 10:02:16;;;;;;;3.17;1.65;;;3.60;99.90;;;;;;4987671;28;20105;-86
2023/03/11 10:05:04;;;;;;;3.70;2.17;;;3.60;99.90;;;;;;4979649;28;20100;-88
2023/03/11 10:07:40;;;;;;;3.03;1.65;;;3.70;99.90;;;;;;4990236;28;20046;-89
2023/03/11 10:10:11;;;;;;;4.65;1.98;;;3.80;99.90;;;;;;4973745;28;20046;-88
2023/03/11 10:12:49;;;;;;;3.40;1.60;;;3.80;99.90;;;;;;4990175;28;20125;-88
2023/03/11 10:15:47;;;;;;;1.67;1.58;;;3.90;99.90;;;;;;4991106;28;20417;-88
2023/03/11 10:18:30;;;;;;;4.28;1.80;;;4.00;99.90;;;;;;4988128;28;20058;-89
2023/03/11 10:21:10;;;;;;;4.93;1.95;;;4.10;99.90;;;;;;4991441;28;20469;-90
2023/03/11 10:24:11;;;;;;;5.25;1.95;;;4.20;99.90;;;;;;4970539;28;20087;-87
2023/03/11 10:26:55;;;;;;;6.75;1.63;;;4.30;99.90;;;;;;4983702;28;20133;-87
2023/03/11 10:29:31;;;;;;;4.45;1.80;;;4.30;99.90;;;;;;4989091;28;20058;-89
2023/03/11 10:32:12;;;;;;;5.55;1.60;;;4.40;99.90;;;;;;4987988;28;20057;-88
2023/03/11 10:34:57;;;;;;;4.60;1.85;;;4.50;99.90;;;;;;4989920;28;20058;-87
2023/03/11 10:37:39;;;;;;;3.30;1.90;;;4.60;99.90;;;;;;4988416;28;20145;-86
2023/03/11 10:40:38;;;;;;;3.45;1.80;;;4.60;99.90;;;;;;4988885;28;20050;-88
2023/03/11 10:43:20;;;;;;;1.67;1.52;;;4.70;99.90;;;;;;4989126;28;20062;-86
2023/03/11 10:45:49;;;;;;;4.00;1.60;;;4.70;99.90;;;;;;4989727;28;20512;-85
2023/03/11 10:48:17;;;;;;;3.60;1.50;;;4.80;99.90;;;;;;4987053;28;20317;-88
2023/03/11 10:51:25;;;;;;;5.85;1.92;;;4.80;99.90;;;;;;4972445;28;20053;-87
2023/03/11 10:53:58;;;;;;;5.72;1.95;;;4.80;99.90;;;;;;4989482;28;20081;-87
2023/03/11 10:56:37;;;;;;;3.65;1.58;;;4.90;99.90;;;;;;4974867;28;20053;-86
2023/03/11 10:59:05;;;;;;;3.42;1.90;;;4.80;99.90;;;;;;4970663;28;20058;-87
2023/03/11 11:01:31;;;;;;;3.00;1.80;;;4.80;99.90;;;;;;4952953;28;20047;-88
2023/03/11 11:03:59;;;;;;;5.43;1.85;;;4.90;99.90;;;;;;4969121;28;20050;-85
2023/03/11 11:06:28;;;;;;;4.90;1.85;;;5.00;99.90;;;;;;4988565;28;20532;-86
2023/03/11 11:09:15;;;;;;;3.63;2.20;;;5.00;99.90;;;;;;4989009;28;20058;-85
2023/03/11 11:11:41;;;;;;;2.63;1.58;;;5.10;99.90;;;;;;4989412;28;20104;-85
2023/03/11 11:14:09;;;;;;;5.00;1.90;;;5.10;99.90;;;;;;4987183;28;20046;-87
2023/03/11 11:16:35;;;;;;;3.08;1.67;;;5.10;99.90;;;;;;4985568;28;20049;-86
2023/03/11 11:19:12;;;;;;;2.33;1.75;;;5.20;99.90;;;;;;4988736;28;20046;-87
2023/03/11 11:21:51;;;;;;;5.07;1.73;;;5.30;99.90;;;;;;4985147;28;20065;-87
2023/03/11 11:24:22;;;;;;;3.75;1.75;;;5.30;99.90;;;;;;4984613;28;20046;-87
2023/03/11 11:27:10;;;;;;;5.70;1.85;;;5.30;99.90;;;;;;4976726;28;20049;-84
2023/03/11 11:29:36;;;;;;;8.52;2.17;;;5.40;99.90;;;;;;4986690;28;20046;-86
2023/03/11 11:32:14;;;;;;;3.92;1.55;;;5.40;99.90;;;;;;4984813;28;20373;-87
2023/03/11 11:34:39;;;;;;;6.00;1.55;;;5.40;99.90;;;;;;4984223;28;20050;-87
2023/03/11 11:37:09;;;;;;;4.25;2.05;;;5.30;99.90;;;;;;4988985;28;20397;-87
2023/03/11 11:39:50;;;;;;;3.17;1.27;;;5.40;99.90;;;;;;4969530;28;20125;-89
2023/03/11 11:42:20;;;;;;;6.03;2.03;;;5.50;99.90;;;;;;4987647;28;20054;-89
2023/03/11 11:44:49;;;;;;;2.83;1.73;;;5.70;99.90;;;;;;4986860;28;20121;-90
2023/03/11 11:47:20;;;;;;;4.05;1.83;;;5.80;99.90;;;;;;4987498;28;20444;-88
2023/03/11 11:49:59;;;;;;;3.08;1.10;;;5.90;99.90;;;;;;4988596;28;20042;-87
2023/03/11 11:52:31;;;;;;;7.05;2.75;;;5.90;99.90;;;;;;4987337;28;20537;-87
2023/03/11 11:55:15;;;;;;;;;;;5.90;99.90;;;;;;4989648;28;20089;-85
2023/03/11 11:57:41;;;;;;;5.32;2.10;;;5.80;99.90;;;;;;4989320;28;19923;-86
2023/03/11 12:00:35;;;;;;;4.38;1.10;;;5.80;99.90;;;;;;4988575;28;20057;-86
2023/03/11 12:03:36;;;;;;;5.75;1.58;;;5.90;99.90;;;;;;4970767;28;20054;-87
2023/03/11 12:06:13;;;;;;;4.70;1.50;;;6.00;99.90;;;;;;4986091;28;20054;-87
2023/03/11 12:08:46;;;;;;;2.25;1.00;;;6.10;99.90;;;;;;4987527;28;20409;-85
2023/03/11 12:11:33;;;;;;;3.17;2.28;;;6.10;99.90;;;;;;4987459;28;20050;-87
2023/03/11 12:14:21;;;;;;;2.30;0.90;;;6.10;99.90;;;;;;4986865;28;20349;-86
2023/03/11 12:16:56;;;;;;;2.00;0.80;;;6.10;99.90;;;;;;4979189;28;20085;-85
2023/03/11 12:19:53;;;;;;;1.45;0.90;;;6.10;99.90;;;;;;4986811;28;20077;-83
2023/03/11 12:22:51;;;;;;;1.92;1.00;;;6.40;99.90;;;;;;4970158;28;20046;-82
2023/03/11 12:25:38;;;;;;;2.30;1.17;;;6.00;99.90;;;;;;4988462;28;20046;-82
2023/03/11 12:28:38;;;;;;;4.28;1.23;;;6.00;99.90;;;;;;4987463;28;20121;-86
2023/03/11 12:31:08;;;;;;;3.15;0.90;;;6.50;99.90;;;;;;4987548;28;20058;-87
2023/03/11 12:33:44;;;;;;;2.65;0.90;;;6.10;99.90;;;;;;4986956;28;20054;-85
2023/03/11 12:36:31;;;;;;;2.63;0.60;;;6.00;99.90;;;;;;4987086;28;20401;-87
2023/03/11 12:38:58;;;;;;;1.45;0.75;;;6.00;99.90;;;;;;4970873;28;20049;-87
2023/03/11 12:41:28;;;;;;;2.60;1.00;;;6.10;99.90;;;;;;4990108;28;20051;-87
2023/03/11 12:43:58;;;;;;;2.42;0.82;;;6.00;99.90;;;;;;4992557;28;20050;-88
2023/03/11 12:46:53;;;;;;;4.53;0.73;;;6.10;99.90;;;;;;4994130;28;20069;-88
2023/03/11 12:49:32;;;;;;;1.00;0.80;;;6.10;99.90;;;;;;4992786;28;20398;-88
2023/03/11 12:52:04;;;;;;;1.40;0.90;;;6.10;99.90;;;;;;4993181;28;20049;-88
2023/03/11 12:54:38;;;;;;;2.85;1.15;;;6.20;99.90;;;;;;4992896;28;20118;-89
2023/03/11 12:57:16;;;;;;;1.98;0.82;;;6.20;99.90;;;;;;4992657;28;20065;-89
2023/03/11 13:00:07;;;;;;;3.42;0.80;;;6.30;99.90;;;;;;4976826;28;20047;-89
2023/03/11 13:03:10;;;;;;;3.65;0.90;;;6.30;99.90;;;;;;4992206;28;20053;-92
2023/03/11 13:05:41;;;;;;;;;;;6.30;99.90;;;;;;4988851;28;20054;-91